sensor_id;sensor_type;location;lat;lon;timestamp;temperature;humidity
36556;DHT22;40859;50.560;7.268;2023-03-11T00:01:25;21.80;70.50
36556;DHT22;40859;50.560;7.268;2023-03-11T00:03:51;21.70;70.30
36556;DHT22;40859;50.560;7.268;2023-03-11T00:06:17;21.70;70.20
36556;DHT22;40859;50.560;7.268;2023-03-11T00:08:43;21.70;70.30
36556;DHT22;40859;50.560;7.268;2023-03-11T00:11:08;21.70;71.60
36556;DHT22;40859;50.560;7.268;2023-03-11T00:13:34;21.70;71.70
36556;DHT22;40859;50.560;7.268;2023-03-11T00:16:01;21.50;70.30
36556;DHT22;40859;50.560;7.268;2023-03-11T00:18:27;21.40;69.00
36556;DHT22;40859;50.560;7.268;2023-03-11T00:20:56;21.40;69.40
36556;DHT22;40859;50.560;7.268;2023-03-11T00:23:22;21.30;69.90
36556;DHT22;40859;50.560;7.268;2023-03-11T00:25:48;21.20;68.70
36556;DHT22;40859;50.560;7.268;2023-03-11T00:28:14;21.20;69.30
36556;DHT22;40859;50.560;7.268;2023-03-11T00:30:40;21.10;69.60
36556;DHT22;40859;50.560;7.268;2023-03-11T00:33:06;21.20;70.60
36556;DHT22;40859;50.560;7.268;2023-03-11T00:35:33;21.20;71.10
36556;DHT22;40859;50.560;7.268;2023-03-11T00:38:03;21.30;70.00
36556;DHT22;40859;50.560;7.268;2023-03-11T00:40:29;21.40;69.90
36556;DHT22;40859;50.560;7.268;2023-03-11T00:42:55;21.40;69.70
36556;DHT22;40859;50.560;7.268;2023-03-11T00:45:21;21.40;69.70
36556;DHT22;40859;50.560;7.268;2023-03-11T00:47:47;21.40;69.70
36556;DHT22;40859;50.560;7.268;2023-03-11T00:50:14;21.40;68.70
36556;DHT22;40859;50.560;7.268;2023-03-11T00:52:42;21.40;68.80
36556;DHT22;40859;50.560;7.268;2023-03-11T00:55:09;21.40;69.20
36556;DHT22;40859;50.560;7.268;2023-03-11T00:57:34;21.40;69.10
36556;DHT22;40859;50.560;7.268;2023-03-11T01:00:00;21.40;69.10
36556;DHT22;40859;50.560;7.268;2023-03-11T01:02:26;21.40;69.30
36556;DHT22;40859;50.560;7.268;2023-03-11T01:04:53;21.40;69.30
36556;DHT22;40859;50.560;7.268;2023-03-11T01:07:20;21.40;69.00
36556;DHT22;40859;50.560;7.268;2023-03-11T01:09:45;21.40;69.30
36556;DHT22;40859;50.560;7.268;2023-03-11T01:12:11;21.40;69.00
36556;DHT22;40859;50.560;7.268;2023-03-11T01:14:37;21.40;68.90
36556;DHT22;40859;50.560;7.268;2023-03-11T01:17:02;21.40;68.80
36556;DHT22;40859;50.560;7.268;2023-03-11T01:19:28;21.40;68.80
36556;DHT22;40859;50.560;7.268;2023-03-11T01:21:54;21.40;67.80
36556;DHT22;40859;50.560;7.268;2023-03-11T01:24:19;21.40;68.30
36556;DHT22;40859;50.560;7.268;2023-03-11T01:26:45;21.40;69.30
36556;DHT22;40859;50.560;7.268;2023-03-11T01:29:11;21.40;68.00
36556;DHT22;40859;50.560;7.268;2023-03-11T01:31:36;21.40;68.40
36556;DHT22;40859;50.560;7.268;2023-03-11T01:34:02;21.40;68.50
36556;DHT22;40859;50.560;7.268;2023-03-11T01:36:28;21.30;67.70
36556;DHT22;40859;50.560;7.268;2023-03-11T01:38:53;21.30;68.30
36556;DHT22;40859;50.560;7.268;2023-03-11T01:41:19;21.30;67.90
36556;DHT22;40859;50.560;7.268;2023-03-11T01:43:50;21.30;68.60
36556;DHT22;40859;50.560;7.268;2023-03-11T01:50:16;21.30;68.50
36556;DHT22;40859;50.560;7.268;2023-03-11T01:52:41;21.30;69.20
36556;DHT22;40859;50.560;7.268;2023-03-11T01:55:08;21.30;69.10
36556;DHT22;40859;50.560;7.268;2023-03-11T01:57:35;21.30;68.30
36556;DHT22;40859;50.560;7.268;2023-03-11T02:00:03;21.30;68.40
36556;DHT22;40859;50.560;7.268;2023-03-11T02:02:34;21.20;69.30
36556;DHT22;40859;50.560;7.268;2023-03-11T02:05:01;21.20;68.60
36556;DHT22;40859;50.560;7.268;2023-03-11T02:07:27;21.30;67.80
36556;DHT22;40859;50.560;7.268;2023-03-11T02:09:53;21.20;68.10
36556;DHT22;40859;50.560;7.268;2023-03-11T02:12:19;21.20;67.30
36556;DHT22;40859;50.560;7.268;2023-03-11T02:14:46;21.20;68.20
36556;DHT22;40859;50.560;7.268;2023-03-11T02:17:13;21.20;68.70
36556;DHT22;40859;50.560;7.268;2023-03-11T02:20:01;21.20;67.00
36556;DHT22;40859;50.560;7.268;2023-03-11T02:22:30;21.20;68.50
36556;DHT22;40859;50.560;7.268;2023-03-11T02:31:05;21.20;68.70
36556;DHT22;40859;50.560;7.268;2023-03-11T02:33:31;21.20;68.20
36556;DHT22;40859;50.560;7.268;2023-03-11T02:35:57;21.20;67.50
36556;DHT22;40859;50.560;7.268;2023-03-11T02:38:23;21.10;67.00
36556;DHT22;40859;50.560;7.268;2023-03-11T02:40:50;21.10;67.00
36556;DHT22;40859;50.560;7.268;2023-03-11T02:43:17;21.10;66.90
36556;DHT22;40859;50.560;7.268;2023-03-11T02:45:44;21.10;66.60
36556;DHT22;40859;50.560;7.268;2023-03-11T02:48:11;21.10;66.20
36556;DHT22;40859;50.560;7.268;2023-03-11T02:50:37;21.10;66.80
36556;DHT22;40859;50.560;7.268;2023-03-11T02:53:03;21.10;66.70
36556;DHT22;40859;50.560;7.268;2023-03-11T02:55:29;21.10;67.10
36556;DHT22;40859;50.560;7.268;2023-03-11T02:57:54;21.10;67.70
36556;DHT22;40859;50.560;7.268;2023-03-11T03:00:20;21.10;66.80
36556;DHT22;40859;50.560;7.268;2023-03-11T03:02:46;21.10;67.90
36556;DHT22;40859;50.560;7.268;2023-03-11T03:05:16;21.10;66.70
36556;DHT22;40859;50.560;7.268;2023-03-11T03:07:41;21.10;66.70
36556;DHT22;40859;50.560;7.268;2023-03-11T03:10:07;21.10;66.60
36556;DHT22;40859;50.560;7.268;2023-03-11T03:12:33;21.10;66.10
36556;DHT22;40859;50.560;7.268;2023-03-11T03:14:59;21.10;66.00
36556;DHT22;40859;50.560;7.268;2023-03-11T03:17:25;21.10;67.50
36556;DHT22;40859;50.560;7.268;2023-03-11T03:19:50;21.00;66.60
36556;DHT22;40859;50.560;7.268;2023-03-11T03:22:16;21.00;66.90
36556;DHT22;40859;50.560;7.268;2023-03-11T03:24:42;21.00;66.70
36556;DHT22;40859;50.560;7.268;2023-03-11T03:27:08;21.00;66.60
36556;DHT22;40859;50.560;7.268;2023-03-11T03:29:33;21.00;67.00
36556;DHT22;40859;50.560;7.268;2023-03-11T03:31:59;21.00;67.60
36556;DHT22;40859;50.560;7.268;2023-03-11T03:34:25;21.00;66.50
36556;DHT22;40859;50.560;7.268;2023-03-11T03:36:51;21.00;67.20
36556;DHT22;40859;50.560;7.268;2023-03-11T03:39:16;21.00;66.20
36556;DHT22;40859;50.560;7.268;2023-03-11T03:41:44;21.00;65.30
36556;DHT22;40859;50.560;7.268;2023-03-11T03:44:09;21.00;66.50
36556;DHT22;40859;50.560;7.268;2023-03-11T03:46:35;21.00;65.50
36556;DHT22;40859;50.560;7.268;2023-03-11T03:49:02;21.00;65.80
36556;DHT22;40859;50.560;7.268;2023-03-11T03:51:28;21.00;65.50
36556;DHT22;40859;50.560;7.268;2023-03-11T03:53:54;21.00;66.20
36556;DHT22;40859;50.560;7.268;2023-03-11T03:56:19;21.00;66.80
36556;DHT22;40859;50.560;7.268;2023-03-11T03:58:45;21.00;65.90
36556;DHT22;40859;50.560;7.268;2023-03-11T04:01:11;21.00;65.50
36556;DHT22;40859;50.560;7.268;2023-03-11T04:03:37;21.00;65.50
36556;DHT22;40859;50.560;7.268;2023-03-11T04:06:25;21.00;66.10
36556;DHT22;40859;50.560;7.268;2023-03-11T04:08:52;21.00;65.70
36556;DHT22;40859;50.560;7.268;2023-03-11T04:11:18;21.00;65.50
36556;DHT22;40859;50.560;7.268;2023-03-11T04:13:44;21.00;65.40
36556;DHT22;40859;50.560;7.268;2023-03-11T04:16:13;21.00;65.30
36556;DHT22;40859;50.560;7.268;2023-03-11T04:18:39;21.00;64.70
36556;DHT22;40859;50.560;7.268;2023-03-11T04:21:05;21.00;65.50
36556;DHT22;40859;50.560;7.268;2023-03-11T04:23:31;21.00;64.80
36556;DHT22;40859;50.560;7.268;2023-03-11T04:25:57;21.00;65.30
36556;DHT22;40859;50.560;7.268;2023-03-11T04:28:23;21.00;66.20
36556;DHT22;40859;50.560;7.268;2023-03-11T04:30:49;21.00;66.20
36556;DHT22;40859;50.560;7.268;2023-03-11T04:33:14;20.90;65.40
36556;DHT22;40859;50.560;7.268;2023-03-11T04:35:40;20.90;65.00
36556;DHT22;40859;50.560;7.268;2023-03-11T04:38:06;21.00;66.10
36556;DHT22;40859;50.560;7.268;2023-03-11T04:40:31;20.90;65.20
36556;DHT22;40859;50.560;7.268;2023-03-11T04:42:57;20.90;65.10
36556;DHT22;40859;50.560;7.268;2023-03-11T04:45:23;20.90;65.00
36556;DHT22;40859;50.560;7.268;2023-03-11T04:47:49;21.00;65.20
36556;DHT22;40859;50.560;7.268;2023-03-11T04:50:15;20.90;65.10
36556;DHT22;40859;50.560;7.268;2023-03-11T04:52:41;20.90;64.30
36556;DHT22;40859;50.560;7.268;2023-03-11T04:55:07;21.00;64.50
36556;DHT22;40859;50.560;7.268;2023-03-11T04:57:33;20.90;65.10
36556;DHT22;40859;50.560;7.268;2023-03-11T04:59:59;21.00;64.60
36556;DHT22;40859;50.560;7.268;2023-03-11T05:02:24;20.90;62.80
36556;DHT22;40859;50.560;7.268;2023-03-11T05:04:50;20.80;65.30
36556;DHT22;40859;50.560;7.268;2023-03-11T05:07:15;20.80;65.10
36556;DHT22;40859;50.560;7.268;2023-03-11T05:09:41;20.80;66.10
36556;DHT22;40859;50.560;7.268;2023-03-11T05:12:08;20.90;65.50
36556;DHT22;40859;50.560;7.268;2023-03-11T05:14:35;20.90;66.60
36556;DHT22;40859;50.560;7.268;2023-03-11T05:17:00;20.80;65.90
36556;DHT22;40859;50.560;7.268;2023-03-11T05:19:26;20.90;65.80
36556;DHT22;40859;50.560;7.268;2023-03-11T05:22:02;20.90;66.50
36556;DHT22;40859;50.560;7.268;2023-03-11T05:24:28;20.90;66.20
36556;DHT22;40859;50.560;7.268;2023-03-11T05:26:54;20.90;65.50
36556;DHT22;40859;50.560;7.268;2023-03-11T05:29:20;20.90;65.40
36556;DHT22;40859;50.560;7.268;2023-03-11T05:31:46;20.80;66.40
36556;DHT22;40859;50.560;7.268;2023-03-11T05:34:12;20.90;66.30
36556;DHT22;40859;50.560;7.268;2023-03-11T05:36:38;20.90;65.20
36556;DHT22;40859;50.560;7.268;2023-03-11T05:39:04;20.90;65.30
36556;DHT22;40859;50.560;7.268;2023-03-11T05:41:29;20.80;66.10
36556;DHT22;40859;50.560;7.268;2023-03-11T05:43:55;20.80;65.80
36556;DHT22;40859;50.560;7.268;2023-03-11T05:46:21;20.80;65.10
36556;DHT22;40859;50.560;7.268;2023-03-11T05:48:46;20.80;66.30
36556;DHT22;40859;50.560;7.268;2023-03-11T05:51:12;20.80;65.40
36556;DHT22;40859;50.560;7.268;2023-03-11T05:53:40;20.80;65.80
36556;DHT22;40859;50.560;7.268;2023-03-11T05:56:06;20.80;66.20
36556;DHT22;40859;50.560;7.268;2023-03-11T05:58:31;20.80;65.40
36556;DHT22;40859;50.560;7.268;2023-03-11T06:00:57;20.80;65.20
36556;DHT22;40859;50.560;7.268;2023-03-11T06:03:26;20.80;65.20
36556;DHT22;40859;50.560;7.268;2023-03-11T06:05:51;20.80;65.50
36556;DHT22;40859;50.560;7.268;2023-03-11T06:08:18;20.80;65.70
36556;DHT22;40859;50.560;7.268;2023-03-11T06:10:44;20.80;65.10
36556;DHT22;40859;50.560;7.268;2023-03-11T06:13:10;20.80;65.10
36556;DHT22;40859;50.560;7.268;2023-03-11T06:15:37;20.80;65.90
36556;DHT22;40859;50.560;7.268;2023-03-11T06:18:03;20.80;64.80
36556;DHT22;40859;50.560;7.268;2023-03-11T06:20:29;20.80;65.90
36556;DHT22;40859;50.560;7.268;2023-03-11T06:22:54;20.80;66.20
36556;DHT22;40859;50.560;7.268;2023-03-11T06:25:20;20.80;65.10
36556;DHT22;40859;50.560;7.268;2023-03-11T06:27:50;20.80;66.00
36556;DHT22;40859;50.560;7.268;2023-03-11T06:30:17;20.80;65.50
36556;DHT22;40859;50.560;7.268;2023-03-11T06:32:43;20.80;66.30
36556;DHT22;40859;50.560;7.268;2023-03-11T06:35:09;20.80;66.10
36556;DHT22;40859;50.560;7.268;2023-03-11T06:37:35;20.80;64.70
36556;DHT22;40859;50.560;7.268;2023-03-11T06:40:01;20.80;66.20
36556;DHT22;40859;50.560;7.268;2023-03-11T06:42:27;20.80;65.30
36556;DHT22;40859;50.560;7.268;2023-03-11T06:44:53;20.80;65.40
36556;DHT22;40859;50.560;7.268;2023-03-11T06:47:19;20.80;65.20
36556;DHT22;40859;50.560;7.268;2023-03-11T06:49:44;20.80;66.30
36556;DHT22;40859;50.560;7.268;2023-03-11T06:52:10;20.80;65.30
36556;DHT22;40859;50.560;7.268;2023-03-11T06:54:35;20.80;65.90
36556;DHT22;40859;50.560;7.268;2023-03-11T06:57:01;20.80;66.20
36556;DHT22;40859;50.560;7.268;2023-03-11T06:59:27;20.80;64.20
36556;DHT22;40859;50.560;7.268;2023-03-11T07:01:53;20.80;65.00
36556;DHT22;40859;50.560;7.268;2023-03-11T07:04:19;20.80;65.80
36556;DHT22;40859;50.560;7.268;2023-03-11T07:06:45;20.80;66.50
36556;DHT22;40859;50.560;7.268;2023-03-11T07:09:11;20.80;65.50
36556;DHT22;40859;50.560;7.268;2023-03-11T07:11:36;20.80;65.40
36556;DHT22;40859;50.560;7.268;2023-03-11T07:14:02;20.80;65.80
36556;DHT22;40859;50.560;7.268;2023-03-11T07:16:28;20.80;63.90
36556;DHT22;40859;50.560;7.268;2023-03-11T07:18:58;20.70;66.70
36556;DHT22;40859;50.560;7.268;2023-03-11T07:21:25;20.80;65.50
36556;DHT22;40859;50.560;7.268;2023-03-11T07:23:52;20.70;64.30
36556;DHT22;40859;50.560;7.268;2023-03-11T07:26:18;20.60;63.40
36556;DHT22;40859;50.560;7.268;2023-03-11T07:28:44;20.40;62.80
36556;DHT22;40859;50.560;7.268;2023-03-11T07:31:20;20.20;62.50
36556;DHT22;40859;50.560;7.268;2023-03-11T07:33:47;20.20;62.70
36556;DHT22;40859;50.560;7.268;2023-03-11T07:36:18;20.00;62.80
36556;DHT22;40859;50.560;7.268;2023-03-11T07:38:44;20.10;63.40
36556;DHT22;40859;50.560;7.268;2023-03-11T07:41:10;20.00;63.70
36556;DHT22;40859;50.560;7.268;2023-03-11T07:43:37;20.00;62.50
36556;DHT22;40859;50.560;7.268;2023-03-11T07:46:04;19.90;63.00
36556;DHT22;40859;50.560;7.268;2023-03-11T07:48:30;19.90;62.90
36556;DHT22;40859;50.560;7.268;2023-03-11T07:51:07;19.80;63.10
36556;DHT22;40859;50.560;7.268;2023-03-11T07:53:34;19.70;64.00
36556;DHT22;40859;50.560;7.268;2023-03-11T07:56:00;19.70;63.40
36556;DHT22;40859;50.560;7.268;2023-03-11T07:58:26;19.70;64.40
36556;DHT22;40859;50.560;7.268;2023-03-11T08:00:52;19.80;63.80
36556;DHT22;40859;50.560;7.268;2023-03-11T08:03:20;19.80;63.60
36556;DHT22;40859;50.560;7.268;2023-03-11T08:05:45;19.70;64.30
36556;DHT22;40859;50.560;7.268;2023-03-11T08:08:11;19.70;64.40
36556;DHT22;40859;50.560;7.268;2023-03-11T08:10:37;19.70;64.50
36556;DHT22;40859;50.560;7.268;2023-03-11T08:13:03;19.70;64.80
36556;DHT22;40859;50.560;7.268;2023-03-11T08:15:29;19.70;65.00
36556;DHT22;40859;50.560;7.268;2023-03-11T08:17:55;19.80;65.50
36556;DHT22;40859;50.560;7.268;2023-03-11T08:20:21;19.90;66.80
36556;DHT22;40859;50.560;7.268;2023-03-11T08:22:46;20.10;68.10
36556;DHT22;40859;50.560;7.268;2023-03-11T08:25:12;20.10;67.50
36556;DHT22;40859;50.560;7.268;2023-03-11T08:27:38;20.20;68.40
36556;DHT22;40859;50.560;7.268;2023-03-11T08:30:05;20.20;67.70
36556;DHT22;40859;50.560;7.268;2023-03-11T08:32:31;20.30;67.90
36556;DHT22;40859;50.560;7.268;2023-03-11T08:34:57;20.30;67.80
36556;DHT22;40859;50.560;7.268;2023-03-11T08:37:23;20.30;67.90
36556;DHT22;40859;50.560;7.268;2023-03-11T08:39:49;20.40;68.10
36556;DHT22;40859;50.560;7.268;2023-03-11T08:42:15;20.40;68.30
36556;DHT22;40859;50.560;7.268;2023-03-11T08:44:41;20.40;68.20
36556;DHT22;40859;50.560;7.268;2023-03-11T08:47:07;20.40;69.10
36556;DHT22;40859;50.560;7.268;2023-03-11T08:49:33;20.50;69.30
36556;DHT22;40859;50.560;7.268;2023-03-11T08:52:00;20.50;68.20
36556;DHT22;40859;50.560;7.268;2023-03-11T08:54:26;20.50;68.30
36556;DHT22;40859;50.560;7.268;2023-03-11T08:56:52;20.50;68.20
36556;DHT22;40859;50.560;7.268;2023-03-11T08:59:17;20.50;68.70
36556;DHT22;40859;50.560;7.268;2023-03-11T09:01:43;20.50;68.10
36556;DHT22;40859;50.560;7.268;2023-03-11T09:04:08;20.60;68.00
36556;DHT22;40859;50.560;7.268;2023-03-11T09:06:34;20.60;68.20
36556;DHT22;40859;50.560;7.268;2023-03-11T09:09:00;20.60;68.00
36556;DHT22;40859;50.560;7.268;2023-03-11T09:11:25;20.60;68.40
36556;DHT22;40859;50.560;7.268;2023-03-11T09:13:51;20.60;69.10
36556;DHT22;40859;50.560;7.268;2023-03-11T09:16:18;20.70;68.20
36556;DHT22;40859;50.560;7.268;2023-03-11T09:18:44;20.70;68.90
36556;DHT22;40859;50.560;7.268;2023-03-11T09:21:10;20.70;68.20
36556;DHT22;40859;50.560;7.268;2023-03-11T09:23:36;20.70;69.30
36556;DHT22;40859;50.560;7.268;2023-03-11T09:26:01;20.70;68.40
36556;DHT22;40859;50.560;7.268;2023-03-11T09:28:27;20.70;68.10
36556;DHT22;40859;50.560;7.268;2023-03-11T09:30:52;20.70;68.10
36556;DHT22;40859;50.560;7.268;2023-03-11T09:33:18;20.70;68.10
36556;DHT22;40859;50.560;7.268;2023-03-11T09:35:44;20.70;68.50
36556;DHT22;40859;50.560;7.268;2023-03-11T09:38:10;20.80;68.40
36556;DHT22;40859;50.560;7.268;2023-03-11T09:40:57;20.80;67.60
36556;DHT22;40859;50.560;7.268;2023-03-11T09:43:30;20.70;67.00
36556;DHT22;40859;50.560;7.268;2023-03-11T09:46:05;20.70;68.10
36556;DHT22;40859;50.560;7.268;2023-03-11T09:48:37;20.70;67.10
36556;DHT22;40859;50.560;7.268;2023-03-11T09:51:16;20.70;67.40
36556;DHT22;40859;50.560;7.268;2023-03-11T09:53:45;20.70;68.10
36556;DHT22;40859;50.560;7.268;2023-03-11T09:56:18;20.70;68.30
36556;DHT22;40859;50.560;7.268;2023-03-11T09:58:54;20.70;67.70
36556;DHT22;40859;50.560;7.268;2023-03-11T10:01:41;20.80;67.50
36556;DHT22;40859;50.560;7.268;2023-03-11T10:04:07;20.70;68.10
36556;DHT22;40859;50.560;7.268;2023-03-11T10:06:35;20.80;67.30
36556;DHT22;40859;50.560;7.268;2023-03-11T10:14:40;20.80;67.10
36556;DHT22;40859;50.560;7.268;2023-03-11T10:17:18;20.80;67.00
36556;DHT22;40859;50.560;7.268;2023-03-11T10:22:48;20.80;67.20
36556;DHT22;40859;50.560;7.268;2023-03-11T10:31:21;20.90;67.30
36556;DHT22;40859;50.560;7.268;2023-03-11T10:33:51;20.80;67.30
36556;DHT22;40859;50.560;7.268;2023-03-11T10:36:23;20.90;67.40
36556;DHT22;40859;50.560;7.268;2023-03-11T10:38:51;20.80;67.30
36556;DHT22;40859;50.560;7.268;2023-03-11T10:45:38;20.90;67.50
36556;DHT22;40859;50.560;7.268;2023-03-11T10:48:09;20.90;67.70
36556;DHT22;40859;50.560;7.268;2023-03-11T10:50:35;20.90;67.90
36556;DHT22;40859;50.560;7.268;2023-03-11T10:53:08;20.90;67.80
36556;DHT22;40859;50.560;7.268;2023-03-11T10:55:35;20.90;68.40
36556;DHT22;40859;50.560;7.268;2023-03-11T10:58:12;20.90;68.80
36556;DHT22;40859;50.560;7.268;2023-03-11T11:00:38;20.90;68.10
36556;DHT22;40859;50.560;7.268;2023-03-11T11:03:10;20.90;68.20
36556;DHT22;40859;50.560;7.268;2023-03-11T11:05:37;21.00;68.30
36556;DHT22;40859;50.560;7.268;2023-03-11T11:08:08;21.00;69.20
36556;DHT22;40859;50.560;7.268;2023-03-11T11:10:36;20.90;68.20
36556;DHT22;40859;50.560;7.268;2023-03-11T11:13:16;21.00;68.20
36556;DHT22;40859;50.560;7.268;2023-03-11T11:18:34;21.00;68.30
36556;DHT22;40859;50.560;7.268;2023-03-11T11:21:05;21.00;68.90
36556;DHT22;40859;50.560;7.268;2023-03-11T11:27:20;21.00;68.20
36556;DHT22;40859;50.560;7.268;2023-03-11T11:29:47;21.00;68.40
36556;DHT22;40859;50.560;7.268;2023-03-11T11:32:25;21.00;68.40
36556;DHT22;40859;50.560;7.268;2023-03-11T11:34:56;21.00;68.70
36556;DHT22;40859;50.560;7.268;2023-03-11T11:37:24;21.10;68.80
36556;DHT22;40859;50.560;7.268;2023-03-11T11:39:57;21.10;68.80
36556;DHT22;40859;50.560;7.268;2023-03-11T11:42:24;21.00;69.60
36556;DHT22;40859;50.560;7.268;2023-03-11T11:44:55;21.00;68.80
36556;DHT22;40859;50.560;7.268;2023-03-11T11:47:29;21.00;68.80
36556;DHT22;40859;50.560;7.268;2023-03-11T11:50:01;21.00;68.80
36556;DHT22;40859;50.560;7.268;2023-03-11T11:52:39;21.00;69.70
36556;DHT22;40859;50.560;7.268;2023-03-11T11:55:21;21.10;69.80
36556;DHT22;40859;50.560;7.268;2023-03-11T11:57:48;21.10;69.70
36556;DHT22;40859;50.560;7.268;2023-03-11T12:05:49;21.10;70.00
36556;DHT22;40859;50.560;7.268;2023-03-11T12:08:21;21.10;70.00
36556;DHT22;40859;50.560;7.268;2023-03-11T12:11:03;21.10;69.00
36556;DHT22;40859;50.560;7.268;2023-03-11T12:13:45;21.10;68.90
36556;DHT22;40859;50.560;7.268;2023-03-11T12:16:30;21.20;68.30
36556;DHT22;40859;50.560;7.268;2023-03-11T12:20:02;21.10;68.10
36556;DHT22;40859;50.560;7.268;2023-03-11T12:28:38;21.20;68.80
36556;DHT22;40859;50.560;7.268;2023-03-11T12:31:09;21.20;68.90
36556;DHT22;40859;50.560;7.268;2023-03-11T12:33:44;21.20;69.90
36556;DHT22;40859;50.560;7.268;2023-03-11T12:36:45;21.20;68.80
36556;DHT22;40859;50.560;7.268;2023-03-11T12:39:32;21.20;69.30
36556;DHT22;40859;50.560;7.268;2023-03-11T12:42:14;21.20;70.20
36556;DHT22;40859;50.560;7.268;2023-03-11T12:44:41;21.20;69.40
36556;DHT22;40859;50.560;7.268;2023-03-11T12:47:17;21.20;69.60
36556;DHT22;40859;50.560;7.268;2023-03-11T12:49:45;21.20;70.50
36556;DHT22;40859;50.560;7.268;2023-03-11T12:52:21;21.20;69.70
36556;DHT22;40859;50.560;7.268;2023-03-11T12:54:48;21.20;70.40
36556;DHT22;40859;50.560;7.268;2023-03-11T12:57:52;21.20;70.40
36556;DHT22;40859;50.560;7.268;2023-03-11T13:00:39;21.20;70.30
36556;DHT22;40859;50.560;7.268;2023-03-11T13:10:50;21.20;70.10
36556;DHT22;40859;50.560;7.268;2023-03-11T13:13:35;21.30;69.10
36556;DHT22;40859;50.560;7.268;2023-03-11T13:19:33;21.30;70.20
36556;DHT22;40859;50.560;7.268;2023-03-11T13:22:00;21.20;69.90
36556;DHT22;40859;50.560;7.268;2023-03-11T13:27:18;21.20;70.10
36556;DHT22;40859;50.560;7.268;2023-03-11T13:30:04;21.20;70.10
36556;DHT22;40859;50.560;7.268;2023-03-11T13:32:47;21.20;70.00
36556;DHT22;40859;50.560;7.268;2023-03-11T13:40:47;21.20;69.20
36556;DHT22;40859;50.560;7.268;2023-03-11T13:43:20;21.20;69.20
36556;DHT22;40859;50.560;7.268;2023-03-11T13:45:51;21.20;68.50
36556;DHT22;40859;50.560;7.268;2023-03-11T13:48:22;21.20;70.10
36556;DHT22;40859;50.560;7.268;2023-03-11T13:55:19;21.20;69.10
36556;DHT22;40859;50.560;7.268;2023-03-11T13:57:52;21.20;70.10
36556;DHT22;40859;50.560;7.268;2023-03-11T14:00:19;21.20;69.10
36556;DHT22;40859;50.560;7.268;2023-03-11T14:02:49;21.20;69.10
36556;DHT22;40859;50.560;7.268;2023-03-11T14:05:26;21.20;70.40
36556;DHT22;40859;50.560;7.268;2023-03-11T14:07:52;21.20;69.10
36556;DHT22;40859;50.560;7.268;2023-03-11T14:10:25;21.20;69.10
36556;DHT22;40859;50.560;7.268;2023-03-11T14:13:05;21.20;69.10
36556;DHT22;40859;50.560;7.268;2023-03-11T14:15:36;21.20;69.10
36556;DHT22;40859;50.560;7.268;2023-03-11T14:18:21;21.20;69.10
36556;DHT22;40859;50.560;7.268;2023-03-11T14:20:49;21.20;69.10
36556;DHT22;40859;50.560;7.268;2023-03-11T14:23:16;21.20;69.10
36556;DHT22;40859;50.560;7.268;2023-03-11T14:25:42;21.20;70.30
36556;DHT22;40859;50.560;7.268;2023-03-11T14:28:12;21.20;69.10
36556;DHT22;40859;50.560;7.268;2023-03-11T14:30:41;21.20;69.10
36556;DHT22;40859;50.560;7.268;2023-03-11T14:33:20;21.20;69.10
36556;DHT22;40859;50.560;7.268;2023-03-11T14:35:56;21.20;69.10
36556;DHT22;40859;50.560;7.268;2023-03-11T14:38:23;21.20;69.10
36556;DHT22;40859;50.560;7.268;2023-03-11T14:40:53;21.20;70.20
36556;DHT22;40859;50.560;7.268;2023-03-11T14:43:20;21.20;70.20
36556;DHT22;40859;50.560;7.268;2023-03-11T14:45:46;21.20;69.20
36556;DHT22;40859;50.560;7.268;2023-03-11T14:48:13;21.30;69.50
36556;DHT22;40859;50.560;7.268;2023-03-11T14:50:43;21.20;69.10
36556;DHT22;40859;50.560;7.268;2023-03-11T14:53:37;21.20;69.20
36556;DHT22;40859;50.560;7.268;2023-03-11T14:56:07;21.20;69.90
36556;DHT22;40859;50.560;7.268;2023-03-11T14:58:40;21.20;69.20
36556;DHT22;40859;50.560;7.268;2023-03-11T15:01:15;21.30;69.30
36556;DHT22;40859;50.560;7.268;2023-03-11T15:03:46;21.30;70.20
36556;DHT22;40859;50.560;7.268;2023-03-11T15:06:14;21.30;68.70
36556;DHT22;40859;50.560;7.268;2023-03-11T15:08:47;21.30;70.40
36556;DHT22;40859;50.560;7.268;2023-03-11T15:11:18;21.30;69.20
36556;DHT22;40859;50.560;7.268;2023-03-11T15:13:45;21.30;70.20
36556;DHT22;40859;50.560;7.268;2023-03-11T15:16:32;21.30;69.10
36556;DHT22;40859;50.560;7.268;2023-03-11T15:18:59;21.30;68.40
36556;DHT22;40859;50.560;7.268;2023-03-11T15:21:25;21.30;69.10
36556;DHT22;40859;50.560;7.268;2023-03-11T15:23:51;21.40;70.20
36556;DHT22;40859;50.560;7.268;2023-03-11T15:26:23;21.30;69.10
36556;DHT22;40859;50.560;7.268;2023-03-11T15:28:57;21.30;69.00
36556;DHT22;40859;50.560;7.268;2023-03-11T15:31:27;21.40;70.10
36556;DHT22;40859;50.560;7.268;2023-03-11T15:38:19;21.30;69.80
36556;DHT22;40859;50.560;7.268;2023-03-11T15:40:56;21.40;69.00
36556;DHT22;40859;50.560;7.268;2023-03-11T15:43:29;21.40;69.00
36556;DHT22;40859;50.560;7.268;2023-03-11T15:45:55;21.30;69.90
36556;DHT22;40859;50.560;7.268;2023-03-11T15:48:22;21.40;68.90
36556;DHT22;40859;50.560;7.268;2023-03-11T15:50:49;21.30;69.80
36556;DHT22;40859;50.560;7.268;2023-03-11T15:53:15;21.30;69.80
36556;DHT22;40859;50.560;7.268;2023-03-11T15:55:41;21.30;69.80
36556;DHT22;40859;50.560;7.268;2023-03-11T15:58:07;21.40;68.70
36556;DHT22;40859;50.560;7.268;2023-03-11T16:00:33;21.40;68.70
36556;DHT22;40859;50.560;7.268;2023-03-11T16:02:59;21.40;68.80
36556;DHT22;40859;50.560;7.268;2023-03-11T16:05:26;21.40;67.90
36556;DHT22;40859;50.560;7.268;2023-03-11T16:07:51;21.40;69.80
36556;DHT22;40859;50.560;7.268;2023-03-11T16:10:18;21.30;68.60
36556;DHT22;40859;50.560;7.268;2023-03-11T16:12:44;21.40;67.90
36556;DHT22;40859;50.560;7.268;2023-03-11T16:15:24;21.40;69.50
36556;DHT22;40859;50.560;7.268;2023-03-11T16:17:53;21.40;68.50
36556;DHT22;40859;50.560;7.268;2023-03-11T16:20:20;21.40;69.50
36556;DHT22;40859;50.560;7.268;2023-03-11T16:22:46;21.40;68.50
36556;DHT22;40859;50.560;7.268;2023-03-11T16:25:19;21.40;68.50
36556;DHT22;40859;50.560;7.268;2023-03-11T16:27:46;21.40;68.50
36556;DHT22;40859;50.560;7.268;2023-03-11T16:30:12;21.40;69.20
36556;DHT22;40859;50.560;7.268;2023-03-11T16:32:40;21.40;69.30
36556;DHT22;40859;50.560;7.268;2023-03-11T16:35:08;21.40;67.50
36556;DHT22;40859;50.560;7.268;2023-03-11T16:37:37;21.40;68.90
36556;DHT22;40859;50.560;7.268;2023-03-11T16:40:03;21.40;68.70
36556;DHT22;40859;50.560;7.268;2023-03-11T16:42:31;21.40;67.80
36556;DHT22;40859;50.560;7.268;2023-03-11T16:44:57;21.40;67.70
36556;DHT22;40859;50.560;7.268;2023-03-11T16:47:23;21.40;67.60
36556;DHT22;40859;50.560;7.268;2023-03-11T16:49:49;21.40;67.50
36556;DHT22;40859;50.560;7.268;2023-03-11T16:52:18;21.40;67.50
36556;DHT22;40859;50.560;7.268;2023-03-11T16:54:48;21.40;67.90